Time;durP1;ratioP1;P1;durP2;ratioP2;P2;SDS_P1;SDS_P2;PMS_P1;PMS_P2;Temp;Humidity;BMP_temperature;BMP_pressure;BME280_temperature;BME280_humidity;BME280_pressure;Samples;Min_cycle;Max_cycle;Signal;HPM_P1;HPM_P2
2020/12/24 00:00:56;;;;;;;3.47;0.50;;;9.60;99.90;;;;;;4979300;28;20023;-66
2020/12/24 00:03:23;;;;;;;2.13;0.73;;;9.60;99.90;;;;;;4978978;28;20023;-66
2020/12/24 00:05:52;;;;;;;3.00;0.70;;;9.50;99.90;;;;;;4959581;28;20125;-66
2020/12/24 00:08:21;;;;;;;1.95;0.60;;;9.50;99.90;;;;;;4959344;28;20027;-66
2020/12/24 00:10:52;;;;;;;2.70;0.88;;;9.50;99.90;;;;;;4959170;28;20031;-66
2020/12/24 00:13:20;;;;;;;2.13;0.75;;;9.50;99.90;;;;;;4959323;28;20024;-67
2020/12/24 00:15:47;;;;;;;3.17;1.00;;;9.50;99.90;;;;;;4959390;28;20022;-67
2020/12/24 00:18:15;;;;;;;3.22;1.25;;;9.40;99.90;;;;;;4959174;28;20027;-66
2020/12/24 00:20:43;;;;;;;3.55;0.82;;;9.50;99.90;;;;;;4959107;28;20082;-67
2020/12/24 00:23:10;;;;;;;1.50;0.63;;;9.40;99.90;;;;;;4959054;29;20026;-67
2020/12/24 00:25:38;;;;;;;4.50;0.77;;;9.40;99.90;;;;;;4959035;28;20086;-66
2020/12/24 00:28:07;;;;;;;3.78;0.90;;;9.40;99.90;;;;;;4959006;28;20055;-67
2020/12/24 00:30:40;;;;;;;7.13;1.38;;;9.30;99.90;;;;;;4958884;28;20027;-67
2020/12/24 00:33:10;;;;;;;3.80;0.95;;;9.30;99.90;;;;;;4959715;29;20046;-67
2020/12/24 00:35:38;;;;;;;2.17;0.70;;;9.30;99.90;;;;;;4958949;28;20029;-67
2020/12/24 00:38:06;;;;;;;5.50;0.68;;;9.30;99.90;;;;;;4959408;28;20078;-67
2020/12/24 00:40:33;;;;;;;3.85;0.82;;;9.30;99.90;;;;;;4959379;29;20023;-67
2020/12/24 00:43:01;;;;;;;2.50;0.93;;;9.30;99.90;;;;;;4958764;29;20031;-66
2020/12/24 00:45:32;;;;;;;6.68;1.48;;;9.30;99.90;;;;;;4959096;28;20380;-67
2020/12/24 00:48:00;;;;;;;3.97;1.05;;;9.30;99.90;;;;;;4957677;28;20030;-67
2020/12/24 00:50:27;;;;;;;6.30;0.82;;;9.30;99.90;;;;;;4958660;29;20102;-67
2020/12/24 00:52:54;;;;;;;5.35;0.85;;;9.20;99.90;;;;;;4957503;29;20493;-67
2020/12/24 00:55:22;;;;;;;2.28;0.70;;;9.30;99.90;;;;;;4958563;28;20412;-67
2020/12/24 00:57:50;;;;;;;3.65;0.80;;;9.30;99.90;;;;;;4957552;29;20023;-67
2020/12/24 01:00:19;;;;;;;5.25;0.55;;;9.40;99.90;;;;;;4958457;28;20035;-67
2020/12/24 01:02:47;;;;;;;3.08;0.63;;;9.40;99.90;;;;;;4957997;28;20035;-67
2020/12/24 01:05:15;;;;;;;5.38;0.98;;;9.40;99.90;;;;;;4972645;28;20133;-67
2020/12/24 01:07:44;;;;;;;2.85;0.63;;;9.40;99.90;;;;;;4992795;28;20031;-67
2020/12/24 01:10:13;;;;;;;8.30;1.33;;;9.40;99.90;;;;;;4977989;28;20029;-67
2020/12/24 01:12:41;;;;;;;6.53;0.70;;;9.50;99.90;;;;;;4978263;28;20046;-67
2020/12/24 01:15:10;;;;;;;3.05;0.50;;;9.40;99.90;;;;;;4977595;28;20022;-67
2020/12/24 01:17:39;;;;;;;9.45;2.05;;;9.40;99.90;;;;;;4977670;28;20323;-67
2020/12/24 01:20:07;;;;;;;4.72;1.00;;;9.30;99.90;;;;;;4977615;28;20038;-67
2020/12/24 01:22:37;;;;;;;4.43;0.80;;;9.40;99.90;;;;;;4978135;28;20033;-67
2020/12/24 01:25:04;;;;;;;5.70;0.90;;;9.30;99.90;;;;;;4978419;28;20289;-67
2020/12/24 01:27:33;;;;;;;6.90;2.13;;;9.30;99.90;;;;;;4977068;28;20026;-67
2020/12/24 01:30:01;;;;;;;7.85;1.02;;;9.30;99.90;;;;;;4977456;28;20031;-67
2020/12/24 01:32:29;;;;;;;4.85;1.27;;;9.30;99.90;;;;;;4977512;28;20035;-67
2020/12/24 01:34:56;;;;;;;4.85;0.93;;;9.30;99.90;;;;;;4978064;28;20031;-67
2020/12/24 01:37:24;;;;;;;1.95;0.60;;;9.30;99.90;;;;;;4977461;28;20446;-67
2020/12/24 01:39:52;;;;;;;4.15;0.80;;;9.30;99.90;;;;;;4976530;28;20031;-67
2020/12/24 01:42:20;;;;;;;9.73;1.60;;;9.30;99.90;;;;;;4977435;28;20019;-67
2020/12/24 01:44:48;;;;;;;6.03;0.95;;;9.30;99.90;;;;;;4977838;28;20419;-67
2020/12/24 01:47:18;;;;;;;2.80;0.82;;;9.30;99.90;;;;;;4992454;28;20078;-67
2020/12/24 01:49:47;;;;;;;5.80;0.80;;;9.30;99.90;;;;;;4978214;28;20285;-67
2020/12/24 01:52:36;;;;;;;4.32;0.80;;;9.30;99.90;;;;;;4977557;28;20046;-67
2020/12/24 01:55:10;;;;;;;5.72;1.15;;;9.20;99.90;;;;;;4977851;28;20023;-67
2020/12/24 01:57:39;;;;;;;5.45;1.17;;;9.20;99.90;;;;;;4977403;28;20035;-67
2020/12/24 02:00:09;;;;;;;5.70;1.42;;;9.20;99.90;;;;;;4977177;28;20030;-67
2020/12/24 02:02:36;;;;;;;13.80;1.92;;;9.10;99.90;;;;;;4992380;28;20027;-67
2020/12/24 02:05:05;;;;;;;7.50;1.23;;;9.10;99.90;;;;;;4976240;28;20039;-67
2020/12/24 02:07:32;;;;;;;8.40;1.55;;;9.10;99.90;;;;;;4992210;28;20027;-67
2020/12/24 02:10:00;;;;;;;8.27;1.20;;;9.10;99.90;;;;;;4977184;28;20027;-67
2020/12/24 02:12:28;;;;;;;7.53;1.48;;;9.00;99.90;;;;;;4992367;28;20034;-67
2020/12/24 02:14:56;;;;;;;4.63;0.77;;;9.00;99.90;;;;;;4979306;28;20082;-67
2020/12/24 02:17:23;;;;;;;6.55;0.80;;;9.00;99.90;;;;;;4980665;28;20037;-67
2020/12/24 02:19:51;;;;;;;17.95;2.10;;;9.00;99.90;;;;;;4981251;28;20023;-67
2020/12/24 02:22:19;;;;;;;4.82;0.95;;;9.00;99.90;;;;;;4980598;28;20027;-67
2020/12/24 02:24:47;;;;;;;5.97;0.88;;;9.00;99.90;;;;;;4980602;28;20327;-67
2020/12/24 02:27:15;;;;;;;6.60;1.23;;;9.00;99.90;;;;;;4980748;28;20030;-67
2020/12/24 02:29:43;;;;;;;9.77;1.13;;;8.90;99.90;;;;;;4995586;28;20438;-67
2020/12/24 02:32:11;;;;;;;9.50;1.20;;;8.90;99.90;;;;;;4980454;28;20147;-67
2020/12/24 02:34:39;;;;;;;6.47;0.98;;;8.90;99.90;;;;;;4980452;28;20023;-67
2020/12/24 02:37:09;;;;;;;12.43;2.53;;;8.80;99.90;;;;;;4980637;28;20502;-67
2020/12/24 02:39:36;;;;;;;5.68;1.67;;;8.80;99.90;;;;;;4979598;28;20327;-67
2020/12/24 02:42:04;;;;;;;4.60;1.27;;;8.70;99.90;;;;;;4980293;28;20027;-67
2020/12/24 02:44:31;;;;;;;4.60;1.25;;;8.70;99.90;;;;;;4980167;28;20034;-67
2020/12/24 02:46:58;;;;;;;13.40;2.30;;;8.70;99.90;;;;;;4980192;28;20490;-67
2020/12/24 02:49:26;;;;;;;5.07;0.98;;;8.70;99.90;;;;;;4980708;28;20023;-67
2020/12/24 02:51:53;;;;;;;12.77;2.13;;;8.70;99.90;;;;;;4980099;28;20022;-67
2020/12/24 02:54:20;;;;;;;5.78;1.20;;;8.70;99.90;;;;;;4980560;28;20073;-67
2020/12/24 02:56:48;;;;;;;5.22;1.58;;;8.70;99.90;;;;;;4980553;28;20335;-67
2020/12/24 02:59:15;;;;;;;4.07;0.93;;;8.60;99.90;;;;;;4995145;28;20491;-67
2020/12/24 03:01:43;;;;;;;7.18;1.40;;;8.60;99.90;;;;;;4979854;28;20334;-67
2020/12/24 03:04:11;;;;;;;7.22;1.27;;;8.60;99.90;;;;;;4980011;28;20053;-67
2020/12/24 03:06:38;;;;;;;2.60;0.88;;;8.50;99.90;;;;;;4980294;28;20038;-67
2020/12/24 03:09:06;;;;;;;5.47;1.48;;;8.50;99.90;;;;;;4979737;28;20038;-67
2020/12/24 03:11:46;;;;;;;10.75;2.85;;;8.50;99.90;;;;;;4979729;28;20055;-67
2020/12/24 03:14:13;;;;;;;8.45;1.48;;;8.40;99.90;;;;;;4979527;28;20110;-67
2020/12/24 03:16:41;;;;;;;7.20;1.08;;;8.40;99.90;;;;;;4979579;28;20113;-67
2020/12/24 03:19:09;;;;;;;6.85;0.68;;;8.40;99.90;;;;;;4980130;28;20035;-67
2020/12/24 03:21:37;;;;;;;9.43;1.65;;;8.40;99.90;;;;;;4979540;28;20058;-67
2020/12/24 03:24:05;;;;;;;5.22;1.33;;;8.30;99.90;;;;;;4994711;28;20387;-67
2020/12/24 03:26:33;;;;;;;8.98;2.40;;;8.20;99.90;;;;;;4978923;28;20495;-67
2020/12/24 03:29:00;;;;;;;9.43;1.38;;;8.20;99.90;;;;;;4979703;28;20106;-67
2020/12/24 03:31:28;;;;;;;6.88;1.20;;;8.20;99.90;;;;;;4979328;28;20449;-67
2020/12/24 03:33:56;;;;;;;11.05;2.17;;;8.10;99.90;;;;;;4979869;28;20474;-67
2020/12/24 03:36:23;;;;;;;5.97;1.60;;;8.10;99.90;;;;;;4979269;28;20026;-67
2020/12/24 03:38:52;;;;;;;9.15;1.08;;;8.20;99.90;;;;;;4980007;28;20383;-67
2020/12/24 03:41:19;;;;;;;9.57;1.50;;;8.20;99.90;;;;;;4979153;28;20023;-67
2020/12/24 03:43:47;;;;;;;5.35;0.88;;;8.30;99.90;;;;;;4994297;28;20022;-67
2020/12/24 03:46:15;;;;;;;12.13;1.58;;;8.30;99.90;;;;;;4979109;28;20026;-67
2020/12/24 03:48:43;;;;;;;11.63;1.92;;;8.30;99.90;;;;;;4994183;28;20029;-67
2020/12/24 03:51:11;;;;;;;7.05;1.55;;;8.30;99.90;;;;;;4978966;28;20418;-67
2020/12/24 03:53:39;;;;;;;7.75;1.20;;;8.20;99.90;;;;;;4978964;28;20093;-67
2020/12/24 03:56:06;;;;;;;10.48;1.60;;;8.20;99.90;;;;;;4978880;28;20038;-67
2020/12/24 03:58:34;;;;;;;5.38;1.23;;;8.20;99.90;;;;;;4978851;28;20435;-67
2020/12/24 04:01:01;;;;;;;7.05;2.63;;;8.10;99.90;;;;;;4993854;28;20061;-67
2020/12/24 04:03:28;;;;;;;10.88;2.42;;;8.10;99.90;;;;;;4979199;28;20038;-67
2020/12/24 04:05:55;;;;;;;8.50;1.50;;;8.10;99.90;;;;;;4978233;28;20039;-67
2020/12/24 04:08:22;;;;;;;7.40;1.80;;;8.10;99.90;;;;;;4979163;28;20019;-67
2020/12/24 04:10:50;;;;;;;4.65;1.15;;;8.10;99.90;;;;;;4979192;28;20023;-67
2020/12/24 04:13:17;;;;;;;14.05;2.63;;;8.10;99.90;;;;;;4978852;28;20019;-67
2020/12/24 04:15:45;;;;;;;7.25;1.17;;;8.10;99.90;;;;;;4977954;28;20089;-67
2020/12/24 04:18:13;;;;;;;7.43;0.68;;;8.10;99.90;;;;;;4979020;28;20049;-67
2020/12/24 04:20:41;;;;;;;10.05;1.48;;;8.10;99.90;;;;;;4978488;28;20331;-67
2020/12/24 04:23:09;;;;;;;4.97;1.15;;;8.10;99.90;;;;;;4978674;28;20046;-67
2020/12/24 04:25:36;;;;;;;8.40;1.40;;;8.10;99.90;;;;;;4978955;28;20027;-67
2020/12/24 04:28:06;;;;;;;4.40;2.03;;;8.10;99.90;;;;;;4978222;28;20481;-67
2020/12/24 04:30:34;;;;;;;3.65;1.33;;;8.10;99.90;;;;;;4978230;28;20027;-67
2020/12/24 04:33:01;;;;;;;6.88;1.05;;;8.00;99.90;;;;;;4978540;28;20027;-67
2020/12/24 04:35:29;;;;;;;8.43;1.00;;;8.00;99.90;;;;;;4977228;28;20065;-67
2020/12/24 04:37:57;;;;;;;7.50;2.53;;;8.00;99.90;;;;;;4977417;28;20023;-67
2020/12/24 04:40:26;;;;;;;7.80;2.05;;;8.00;99.90;;;;;;4978157;28;20439;-67
2020/12/24 04:42:54;;;;;;;10.93;1.17;;;8.00;99.90;;;;;;4978622;28;20030;-67
2020/12/24 04:45:22;;;;;;;5.38;1.00;;;8.00;99.90;;;;;;4978321;28;20023;-67
2020/12/24 04:47:57;;;;;;;11.20;1.50;;;8.00;99.90;;;;;;4978225;28;20058;-67
2020/12/24 04:50:30;;;;;;;5.88;1.40;;;7.90;99.90;;;;;;4977968;28;20102;-67
2020/12/24 04:52:59;;;;;;;8.73;1.70;;;8.00;99.90;;;;;;4978264;28;20106;-67
2020/12/24 04:55:27;;;;;;;5.97;1.25;;;8.00;99.90;;;;;;4977973;28;20098;-67
2020/12/24 04:58:00;;;;;;;8.48;1.40;;;8.00;99.90;;;;;;4993872;28;20023;-67
2020/12/24 05:00:27;;;;;;;12.68;2.30;;;8.00;99.90;;;;;;4978070;28;20411;-67
2020/12/24 05:03:05;;;;;;;3.95;1.10;;;8.00;99.90;;;;;;4977820;28;20030;-67
2020/12/24 05:05:33;;;;;;;9.07;1.58;;;8.00;99.90;;;;;;4977675;28;20106;-67
2020/12/24 05:08:06;;;;;;;15.43;1.75;;;8.00;99.90;;;;;;4977985;28;20031;-67
2020/12/24 05:10:35;;;;;;;3.15;0.93;;;8.00;99.90;;;;;;4977737;28;20026;-67
2020/12/24 05:13:24;;;;;;;12.20;2.15;;;8.00;99.90;;;;;;4977968;28;20085;-66
2020/12/24 05:15:52;;;;;;;5.38;1.63;;;8.00;99.90;;;;;;4977655;28;20030;-66
2020/12/24 05:18:23;;;;;;;8.35;1.60;;;7.90;99.90;;;;;;4978188;28;20023;-67
2020/12/24 05:20:51;;;;;;;6.50;1.20;;;7.70;99.90;;;;;;4977662;28;20019;-67
2020/12/24 05:23:29;;;;;;;11.60;1.75;;;7.70;99.90;;;;;;4992745;28;20023;-66
2020/12/24 05:25:56;;;;;;;6.38;1.73;;;7.60;99.90;;;;;;4978106;28;20061;-67
2020/12/24 05:28:25;;;;;;;6.78;2.38;;;7.50;99.90;;;;;;4977563;28;20019;-66
2020/12/24 05:30:54;;;;;;;10.32;1.30;;;7.50;99.90;;;;;;4978045;28;20027;-67
2020/12/24 05:33:33;;;;;;;9.45;1.80;;;7.50;99.90;;;;;;4977775;28;20438;-67
2020/12/24 05:36:20;;;;;;;4.63;1.75;;;7.50;99.90;;;;;;4977527;28;20023;-66
2020/12/24 05:38:48;;;;;;;3.00;1.50;;;7.50;99.90;;;;;;4977472;28;20027;-66
2020/12/24 05:41:33;;;;;;;8.90;1.63;;;7.40;99.90;;;;;;4977772;28;20301;-66
2020/12/24 05:44:07;;;;;;;7.65;2.72;;;7.40;99.90;;;;;;4977967;28;20025;-66
2020/12/24 05:46:46;;;;;;;8.02;2.22;;;7.40;99.90;;;;;;4977284;28;20057;-66
2020/12/24 05:49:16;;;;;;;6.75;1.60;;;7.40;99.90;;;;;;4979303;28;20031;-66
2020/12/24 05:52:05;;;;;;;2.92;1.17;;;7.30;99.90;;;;;;4981188;28;20053;-66
2020/12/24 05:54:34;;;;;;;5.10;1.05;;;7.30;99.90;;;;;;4981105;28;20323;-66
2020/12/24 05:57:03;;;;;;;8.75;1.38;;;7.20;99.90;;;;;;4981044;28;20030;-66
2020/12/24 05:59:31;;;;;;;7.40;0.90;;;7.20;99.90;;;;;;4980979;28;20327;-66
2020/12/24 06:02:15;;;;;;;11.20;2.20;;;7.10;99.90;;;;;;4981229;28;20105;-66
2020/12/24 06:04:45;;;;;;;3.95;1.13;;;7.10;99.90;;;;;;4981029;28;20462;-66
2020/12/24 06:07:20;;;;;;;9.48;2.40;;;7.10;99.90;;;;;;4981410;28;20035;-66
2020/12/24 06:09:51;;;;;;;5.00;1.80;;;7.00;99.90;;;;;;4981467;28;20050;-66
2020/12/24 06:12:26;;;;;;;7.40;2.17;;;7.00;99.90;;;;;;4979911;28;20033;-66
2020/12/24 06:14:56;;;;;;;9.02;1.77;;;6.90;99.90;;;;;;4995959;28;20054;-66
2020/12/24 06:17:26;;;;;;;7.88;1.92;;;6.90;99.90;;;;;;4980747;28;20055;-66
2020/12/24 06:19:53;;;;;;;8.90;1.92;;;6.90;99.90;;;;;;4995899;28;20073;-67
2020/12/24 06:22:23;;;;;;;8.63;2.97;;;6.90;99.90;;;;;;4980890;28;20089;-66
2020/12/24 06:24:54;;;;;;;9.15;2.17;;;6.90;99.90;;;;;;4980601;28;20419;-66
2020/12/24 06:28:04;;;;;;;7.18;2.05;;;6.80;99.90;;;;;;4980676;28;20113;-66
2020/12/24 06:30:31;;;;;;;13.90;1.92;;;6.80;99.90;;;;;;4969015;28;20039;-66
2020/12/24 06:33:00;;;;;;;9.70;2.45;;;6.80;99.90;;;;;;4980491;28;20023;-66
2020/12/24 06:35:42;;;;;;;6.00;1.45;;;6.80;99.90;;;;;;4995592;28;20050;-66
2020/12/24 06:38:14;;;;;;;10.30;2.35;;;6.80;99.90;;;;;;4980813;28;20086;-66
2020/12/24 06:40:41;;;;;;;8.90;2.50;;;6.70;99.90;;;;;;4980598;28;20320;-66
2020/12/24 06:43:10;;;;;;;10.80;2.45;;;6.70;99.90;;;;;;4980209;28;20034;-66
2020/12/24 06:45:41;;;;;;;10.52;3.10;;;6.70;99.90;;;;;;4980191;28;20031;-66
2020/12/24 06:48:24;;;;;;;6.03;2.22;;;6.70;99.90;;;;;;4995467;28;20031;-66
2020/12/24 06:51:03;;;;;;;6.82;1.90;;;6.70;99.90;;;;;;4980300;28;20023;-68
2020/12/24 06:53:32;;;;;;;7.05;2.22;;;6.70;99.90;;;;;;4980022;28;20027;-69
2020/12/24 06:56:15;;;;;;;5.35;2.25;;;6.70;99.90;;;;;;4980080;28;20027;-68
2020/12/24 06:58:51;;;;;;;3.30;1.00;;;6.60;99.90;;;;;;4980534;28;20049;-68
2020/12/24 07:01:23;;;;;;;2.75;1.15;;;6.50;99.90;;;;;;4979181;28;20023;-70
2020/12/24 07:03:52;;;;;;;2.25;0.82;;;6.30;99.90;;;;;;4979633;28;20121;-70
2020/12/24 07:06:45;;;;;;;0.85;0.40;;;6.10;99.90;;;;;;4979827;28;20159;-70
2020/12/24 07:09:32;;;;;;;1.90;0.60;;;5.90;99.90;;;;;;4980061;28;20035;-70
2020/12/24 07:12:03;;;;;;;0.77;0.40;;;5.70;99.90;;;;;;4979804;28;20023;-69
2020/12/24 07:14:40;;;;;;;1.08;0.52;;;5.60;99.90;;;;;;4979698;28;20092;-69
2020/12/24 07:17:15;;;;;;;0.98;0.50;;;5.40;99.90;;;;;;4995156;28;20327;-69
2020/12/24 07:19:44;;;;;;;0.80;0.40;;;5.30;99.90;;;;;;4979621;28;20131;-69
2020/12/24 07:22:15;;;;;;;1.17;0.50;;;5.20;99.90;;;;;;4994853;28;20035;-70
2020/12/24 07:25:00;;;;;;;0.85;0.30;;;5.10;99.90;;;;;;4979889;28;20419;-69
2020/12/24 07:27:29;;;;;;;1.38;0.50;;;5.00;99.90;;;;;;4979577;28;20039;-70
2020/12/24 07:29:58;;;;;;;0.20;0.20;;;4.80;99.90;;;;;;4979480;28;20442;-69
2020/12/24 07:32:26;;;;;;;1.05;0.40;;;4.70;99.90;;;;;;4979955;28;20054;-69
2020/12/24 07:34:53;;;;;;;0.20;0.20;;;4.60;99.90;;;;;;4979821;28;20073;-68
2020/12/24 07:37:25;;;;;;;3.17;0.30;;;4.30;99.90;;;;;;4978301;28;20073;-68
2020/12/24 07:39:53;;;;;;;2.97;0.38;;;4.20;99.90;;;;;;4979181;28;20312;-68
2020/12/24 07:42:25;;;;;;;0.50;0.20;;;4.10;99.90;;;;;;4979472;28;20109;-68
2020/12/24 07:44:52;;;;;;;0.40;0.30;;;4.00;99.90;;;;;;4980314;28;20332;-68
2020/12/24 07:47:19;;;;;;;0.60;0.40;;;3.90;99.90;;;;;;4962079;28;20030;-68
2020/12/24 07:49:51;;;;;;;0.70;0.30;;;3.80;99.90;;;;;;4979149;28;20023;-68
2020/12/24 07:52:19;;;;;;;0.35;0.30;;;3.80;99.90;;;;;;4979049;28;20443;-68
2020/12/24 07:54:46;;;;;;;0.22;0.20;;;3.70;99.90;;;;;;4979152;28;20033;-68
2020/12/24 07:57:24;;;;;;;2.22;0.60;;;3.60;99.90;;;;;;4979454;28;20058;-70
2020/12/24 08:00:01;;;;;;;1.48;0.80;;;3.60;99.90;;;;;;4978817;28;20034;-69
2020/12/24 08:02:28;;;;;;;2.25;0.77;;;3.60;99.90;;;;;;4978795;28;20029;-68
2020/12/24 08:04:56;;;;;;;0.68;0.50;;;3.50;99.90;;;;;;4978657;28;20047;-68
2020/12/24 08:07:24;;;;;;;0.93;0.52;;;3.50;99.90;;;;;;4978665;28;20071;-67
2020/12/24 08:09:51;;;;;;;0.73;0.47;;;3.40;99.90;;;;;;4978540;28;20022;-69
2020/12/24 08:12:23;;;;;;;1.20;0.60;;;3.30;99.90;;;;;;4978546;28;20031;-69
2020/12/24 08:14:51;;;;;;;1.27;0.60;;;3.30;99.90;;;;;;4978673;28;20454;-68
2020/12/24 08:17:42;;;;;;;0.60;0.40;;;3.20;99.90;;;;;;4979093;28;20098;-69
2020/12/24 08:20:12;;;;;;;0.68;0.40;;;3.20;99.90;;;;;;4978470;28;20367;-69
2020/12/24 08:23:04;;;;;;;0.93;0.70;;;3.10;99.90;;;;;;4993600;28;20031;-68
2020/12/24 08:25:32;;;;;;;1.52;0.60;;;3.10;99.90;;;;;;4993715;28;20030;-68
2020/12/24 08:28:01;;;;;;;2.38;0.50;;;3.10;99.90;;;;;;4979047;28;20105;-70
2020/12/24 08:30:29;;;;;;;1.63;0.82;;;3.00;99.90;;;;;;4993379;28;20079;-70
2020/12/24 08:32:58;;;;;;;1.50;0.90;;;3.00;99.90;;;;;;4978534;28;20018;-68
2020/12/24 08:35:30;;;;;;;2.63;1.15;;;3.00;99.90;;;;;;4978220;28;20062;-67
2020/12/24 08:38:16;;;;;;;2.00;0.90;;;3.00;99.90;;;;;;4978618;28;20415;-72
2020/12/24 08:40:44;;;;;;;2.65;1.10;;;3.00;99.90;;;;;;4978148;28;20051;-68
2020/12/24 08:43:13;;;;;;;2.17;1.02;;;3.00;99.90;;;;;;4977676;28;20419;-68
2020/12/24 08:45:52;;;;;;;1.90;0.80;;;3.00;99.90;;;;;;4994582;28;20042;-67
2020/12/24 08:48:36;;;;;;;2.22;1.10;;;3.00;99.90;;;;;;4978310;28;20026;-68
2020/12/24 08:51:18;;;;;;;3.70;1.00;;;3.10;99.90;;;;;;4977986;28;20033;-68
2020/12/24 08:53:46;;;;;;;2.22;1.15;;;3.10;99.90;;;;;;4977975;28;20022;-67
2020/12/24 08:56:18;;;;;;;9.55;4.28;;;3.10;99.90;;;;;;4977881;28;20419;-69
2020/12/24 08:58:56;;;;;;;2.72;1.42;;;3.10;99.90;;;;;;4978351;28;20113;-67
2020/12/24 09:01:23;;;;;;;5.50;1.55;;;3.10;99.90;;;;;;4977711;28;20019;-68
2020/12/24 09:03:50;;;;;;;8.27;4.32;;;3.10;99.90;;;;;;4977807;28;20097;-65
2020/12/24 09:06:18;;;;;;;4.95;2.33;;;3.10;99.90;;;;;;4978219;28;20347;-65
2020/12/24 09:08:53;;;;;;;2.72;1.50;;;3.10;99.90;;;;;;4976819;28;20019;-66
2020/12/24 09:11:32;;;;;;;3.15;1.60;;;3.20;99.90;;;;;;4978287;28;20154;-65
2020/12/24 09:14:07;;;;;;;2.63;1.50;;;3.20;99.90;;;;;;4978272;28;20442;-68
2020/12/24 09:16:35;;;;;;;3.15;2.00;;;3.20;99.90;;;;;;4978322;28;20058;-68
2020/12/24 09:19:10;;;;;;;4.00;2.47;;;3.20;99.90;;;;;;4977286;28;20058;-67
2020/12/24 09:21:52;;;;;;;3.43;2.17;;;3.30;99.90;;;;;;4977591;28;20038;-67
2020/12/24 09:24:20;;;;;;;6.63;3.50;;;3.30;99.90;;;;;;4979899;28;20038;-65
2020/12/24 09:26:52;;;;;;;4.43;2.50;;;3.40;99.90;;;;;;4982022;28;20051;-67
2020/12/24 09:29:21;;;;;;;3.92;2.25;;;3.50;99.90;;;;;;4997205;28;20027;-67
2020/12/24 09:32:03;;;;;;;4.47;2.40;;;3.50;99.90;;;;;;4982974;28;20029;-67
2020/12/24 09:34:31;;;;;;;3.92;1.98;;;3.60;99.90;;;;;;4997460;28;20022;-67
2020/12/24 09:36:59;;;;;;;3.47;2.08;;;3.70;99.90;;;;;;4981034;28;20208;-67
2020/12/24 09:39:26;;;;;;;11.88;6.13;;;3.80;99.90;;;;;;4997093;28;20027;-67
2020/12/24 09:41:55;;;;;;;11.30;3.42;;;3.90;99.90;;;;;;4981451;28;20027;-67
2020/12/24 09:44:23;;;;;;;2.72;2.13;;;4.00;99.90;;;;;;4982151;28;20026;-67
2020/12/24 09:46:50;;;;;;;2.67;1.67;;;4.10;99.90;;;;;;4981829;28;20037;-67
2020/12/24 09:49:19;;;;;;;2.90;1.52;;;4.10;99.90;;;;;;4996603;28;20022;-67
2020/12/24 09:51:47;;;;;;;2.92;1.80;;;4.10;99.90;;;;;;4981561;28;20019;-67
2020/12/24 09:54:15;;;;;;;3.15;1.80;;;4.10;99.90;;;;;;4997328;28;20323;-67
2020/12/24 09:56:43;;;;;;;3.42;2.10;;;4.20;99.90;;;;;;4981528;28;20046;-67
2020/12/24 09:59:11;;;;;;;3.78;2.00;;;4.20;99.90;;;;;;4996534;28;20027;-66
2020/12/24 10:01:38;;;;;;;7.28;3.28;;;4.30;99.90;;;;;;4980929;28;20263;-66
2020/12/24 10:04:07;;;;;;;2.65;1.48;;;4.30;99.90;;;;;;4981640;28;20163;-66
2020/12/24 10:06:35;;;;;;;3.20;1.58;;;4.40;99.90;;;;;;4983105;28;20273;-66
2020/12/24 10:09:03;;;;;;;4.13;1.92;;;4.50;99.90;;;;;;4981465;28;20023;-66
2020/12/24 10:11:30;;;;;;;3.47;1.90;;;4.50;99.90;;;;;;4996088;28;20031;-66
2020/12/24 10:13:58;;;;;;;3.20;1.95;;;4.60;99.90;;;;;;4980785;28;20127;-66
2020/12/24 10:16:26;;;;;;;3.47;2.03;;;4.60;99.90;;;;;;4981365;28;20043;-67
2020/12/24 10:18:54;;;;;;;3.63;2.25;;;4.60;99.90;;;;;;4981360;28;20419;-66
2020/12/24 10:21:22;;;;;;;7.38;4.15;;;4.60;99.90;;;;;;4995945;28;20034;-67
2020/12/24 10:23:49;;;;;;;4.65;2.25;;;4.60;99.90;;;;;;4981906;28;20022;-67
2020/12/24 10:26:17;;;;;;;7.35;2.70;;;4.70;99.90;;;;;;4980454;28;20037;-66
2020/12/24 10:28:45;;;;;;;6.88;3.03;;;4.70;99.90;;;;;;4980701;28;20022;-66
2020/12/24 10:31:12;;;;;;;5.28;3.00;;;4.60;99.90;;;;;;4979329;28;20110;-66
2020/12/24 10:33:39;;;;;;;8.75;4.43;;;4.60;99.90;;;;;;4979397;28;20034;-65
2020/12/24 10:36:07;;;;;;;8.55;4.65;;;4.60;99.90;;;;;;4979604;28;20078;-66
2020/12/24 10:38:36;;;;;;;5.60;3.10;;;4.60;99.90;;;;;;4979961;28;20106;-66
2020/12/24 10:41:04;;;;;;;7.53;3.78;;;4.60;99.90;;;;;;4979857;28;20046;-66
2020/12/24 10:43:33;;;;;;;7.97;4.13;;;4.70;99.90;;;;;;4979594;28;20086;-66
2020/12/24 10:46:01;;;;;;;7.25;3.70;;;4.70;99.90;;;;;;4980178;28;20019;-66
2020/12/24 10:48:29;;;;;;;6.80;3.80;;;4.70;99.90;;;;;;4980247;28;20113;-67
2020/12/24 10:50:58;;;;;;;12.35;4.28;;;4.70;99.90;;;;;;4979994;28;20058;-67
2020/12/24 10:53:26;;;;;;;6.30;3.70;;;4.70;99.90;;;;;;4980220;28;20049;-67
2020/12/24 10:55:54;;;;;;;9.32;3.53;;;4.80;99.90;;;;;;4980052;28;20031;-67
2020/12/24 10:58:21;;;;;;;5.95;3.67;;;4.70;99.90;;;;;;4980665;28;20441;-66
2020/12/24 11:00:49;;;;;;;10.02;3.88;;;4.70;99.90;;;;;;4980056;28;20041;-67
2020/12/24 11:03:19;;;;;;;7.20;4.18;;;4.70;99.90;;;;;;4980212;28;20026;-67
2020/12/24 11:05:47;;;;;;;9.63;3.67;;;4.70;99.90;;;;;;4979359;28;20082;-66
2020/12/24 11:08:19;;;;;;;7.88;3.80;;;4.60;99.90;;;;;;4978797;28;20026;-67
2020/12/24 11:10:47;;;;;;;7.20;3.00;;;4.60;99.90;;;;;;4979996;28;20034;-67
2020/12/24 11:13:14;;;;;;;4.85;2.80;;;4.60;99.90;;;;;;4979915;28;20043;-66
2020/12/24 11:15:42;;;;;;;5.78;3.33;;;4.60;99.90;;;;;;4979693;28;20022;-66
2020/12/24 11:18:11;;;;;;;6.53;2.72;;;4.60;99.90;;;;;;4979683;28;20300;-67
2020/12/24 11:20:39;;;;;;;5.93;2.90;;;4.60;99.90;;;;;;4979554;28;20035;-66
2020/12/24 11:23:07;;;;;;;4.75;2.92;;;4.70;99.90;;;;;;4980268;28;20315;-67
2020/12/24 11:25:35;;;;;;;8.07;3.20;;;4.70;99.90;;;;;;4979534;28;20050;-67
2020/12/24 11:28:03;;;;;;;3.50;2.53;;;4.70;99.90;;;;;;4979424;28;20034;-67
2020/12/24 11:30:31;;;;;;;4.95;2.55;;;4.70;99.90;;;;;;4979386;28;20022;-65
2020/12/24 11:33:00;;;;;;;5.72;2.88;;;4.70;99.90;;;;;;4979593;28;20335;-66
2020/12/24 11:35:27;;;;;;;4.85;3.28;;;4.70;99.90;;;;;;4979390;28;20427;-66
2020/12/24 11:37:55;;;;;;;6.00;2.90;;;4.70;99.90;;;;;;4980011;28;20321;-66
2020/12/24 11:40:22;;;;;;;7.53;2.92;;;4.70;99.90;;;;;;4994424;28;20334;-66
2020/12/24 11:42:50;;;;;;;9.57;3.08;;;4.60;99.90;;;;;;4979167;28;20027;-66
2020/12/24 11:45:19;;;;;;;5.05;2.85;;;4.60;99.90;;;;;;4979244;28;20030;-66
2020/12/24 11:47:46;;;;;;;8.88;2.30;;;4.60;99.90;;;;;;4993912;28;20034;-66
2020/12/24 11:50:14;;;;;;;4.93;1.98;;;4.70;99.90;;;;;;4979338;28;20466;-66
2020/12/24 11:52:42;;;;;;;5.15;2.55;;;4.70;99.90;;;;;;4979805;28;20047;-66
2020/12/24 11:55:11;;;;;;;4.78;2.33;;;4.60;99.90;;;;;;4978987;28;20023;-66
2020/12/24 11:57:38;;;;;;;3.45;1.83;;;4.60;99.90;;;;;;4979722;28;20026;-66
2020/12/24 12:00:11;;;;;;;2.95;1.77;;;4.60;99.90;;;;;;4978101;28;20077;-66
2020/12/24 12:02:40;;;;;;;4.43;2.30;;;4.60;99.90;;;;;;4978684;28;20052;-65
2020/12/24 12:05:08;;;;;;;4.25;2.13;;;4.60;99.90;;;;;;4978883;28;20343;-66
2020/12/24 12:07:35;;;;;;;3.97;2.38;;;4.60;99.90;;;;;;4978777;28;20296;-67
2020/12/24 12:10:03;;;;;;;5.70;2.60;;;4.60;99.90;;;;;;4978757;28;20034;-66
2020/12/24 12:12:31;;;;;;;3.55;1.98;;;4.60;99.90;;;;;;4977967;28;20085;-67
2020/12/24 12:14:58;;;;;;;5.60;2.40;;;4.70;99.90;;;;;;4978558;28;20423;-66
2020/12/24 12:17:26;;;;;;;4.80;2.42;;;4.70;99.90;;;;;;4978617;28;20035;-67
2020/12/24 12:19:54;;;;;;;3.92;1.90;;;4.70;99.90;;;;;;4978521;28;20051;-67
2020/12/24 12:22:22;;;;;;;7.72;1.90;;;4.70;99.90;;;;;;4978498;28;20033;-67
2020/12/24 12:24:49;;;;;;;9.95;2.53;;;4.80;99.90;;;;;;4978451;28;20027;-66
2020/12/24 12:27:21;;;;;;;4.47;2.50;;;4.80;99.90;;;;;;4978493;28;20027;-67
2020/12/24 12:29:48;;;;;;;4.00;2.25;;;4.80;99.90;;;;;;4993730;28;20019;-66
2020/12/24 12:32:16;;;;;;;5.70;2.25;;;4.90;99.90;;;;;;4978341;28;20046;-66
2020/12/24 12:34:46;;;;;;;4.28;2.53;;;5.00;99.90;;;;;;4978179;28;20324;-66
2020/12/24 12:37:14;;;;;;;7.95;2.85;;;5.10;99.90;;;;;;4978278;28;20027;-67
2020/12/24 12:39:42;;;;;;;3.70;2.08;;;5.20;99.90;;;;;;4978554;28;20038;-66
2020/12/24 12:42:10;;;;;;;3.67;1.92;;;5.30;99.90;;;;;;4978230;28;20109;-67
2020/12/24 12:44:39;;;;;;;3.70;2.17;;;5.30;99.90;;;;;;4978352;28;20535;-66
2020/12/24 12:47:07;;;;;;;4.13;2.70;;;5.40;99.90;;;;;;4979451;28;20031;-66
2020/12/24 12:49:34;;;;;;;3.47;1.92;;;5.50;99.90;;;;;;4978062;28;20021;-67
2020/12/24 12:52:03;;;;;;;3.72;1.58;;;5.50;99.90;;;;;;4978044;28;20097;-67
2020/12/24 12:54:31;;;;;;;3.22;1.60;;;5.50;99.90;;;;;;4993148;28;20023;-66
2020/12/24 12:56:59;;;;;;;3.08;1.80;;;5.50;99.90;;;;;;4978218;28;20396;-67
2020/12/24 12:59:27;;;;;;;3.38;2.03;;;5.50;99.90;;;;;;4977209;28;20073;-68
2020/12/24 13:01:54;;;;;;;5.63;1.80;;;5.60;99.90;;;;;;4993401;28;20416;-67
2020/12/24 13:04:22;;;;;;;4.30;1.90;;;5.60;99.90;;;;;;4978038;28;20129;-67
2020/12/24 13:06:49;;;;;;;4.43;1.67;;;5.60;99.90;;;;;;4978639;28;20358;-67
2020/12/24 13:09:16;;;;;;;3.13;1.75;;;5.60;99.90;;;;;;4978388;28;20059;-67